Latest Weather Observations for Gosford

IDN60801

Issued at 9:32 pm EST Thursday 22 June 2017 (issued every 30 minutes, with the page automatically refreshed every 10 minutes)

About weather observations | Map of weather stations | Latest weather observations for NSW | Other Formats
Station Details ID: 061425 Name: GOSFORD AWS Lat: -33.44 Lon: 151.36 Height: 7.0 m
Data from the previous 72 hours. | See also: Recent months at Gosford
Date/Time
EST
Temp
°C
App
Temp
°C
Dew
Point
°C
Rel
Hum
%
Delta-T
°C
Wind Press
QNH
hPa
Press
MSL
hPa
Rain since
9am
mm
Dir  Spd
km/h
Gust
km/h
Spd
kts
Gust
kts
22/09:30pm 9.4 9.2 8.9 97 0.2 CALM 0 0 0 0 - - 0.0
22/09:00pm 10.0 9.9 9.5 97 0.2 CALM 0 0 0 0 - - 0.0
22/08:30pm 10.1 10.0 9.6 97 0.2 CALM 0 0 0 0 - - 0.0
22/08:00pm 10.5 10.5 9.9 96 0.3 CALM 0 0 0 0 - - 0.0
22/07:30pm 10.7 10.8 10.1 96 0.3 CALM 0 0 0 0 - - 0.0
22/07:00pm 11.1 11.2 10.3 95 0.4 CALM 0 0 0 0 - - 0.0
22/06:30pm 11.7 12.0 10.8 94 0.5 CALM 0 0 0 0 - - 0.0
22/06:00pm 12.0 12.3 10.9 93 0.6 CALM 0 0 0 0 - - 0.0
22/05:30pm 12.7 13.1 11.3 91 0.7 CALM 0 0 0 0 - - 0.0
22/05:00pm 13.6 14.1 11.5 87 1.1 CALM 0 0 0 0 - - 0.0
22/04:30pm 14.7 15.3 11.8 83 1.6 CALM 0 0 0 0 - - 0.0
22/04:00pm 15.7 16.3 11.9 78 2.1 CALM 0 0 0 0 - - 0.0
22/03:30pm 16.8 17.3 11.7 72 2.8 CALM 0 0 0 0 - - 0.0
22/03:00pm 17.0 16.7 11.5 70 3.0 S 4 9 2 5 - - 0.0
22/02:30pm 17.3 16.8 10.7 65 3.5 SSW 4 7 2 4 - - 0.0
22/02:00pm 17.0 16.6 11.1 68 3.2 SSW 4 7 2 4 - - 0.0
22/01:30pm 17.4 16.6 11.2 67 3.4 S 6 7 3 4 - - 0.0
22/01:00pm 17.2 16.4 11.2 68 3.2 SSW 6 6 3 3 - - 0.0
22/12:30pm 16.9 16.3 11.8 72 2.8 SSW 6 7 3 4 - - 0.0
22/12:00pm 16.3 15.4 11.5 73 2.6 SW 7 9 4 5 - - 0.0
22/11:30am 15.7 14.8 11.5 76 2.3 SW 7 11 4 6 - - 0.0
22/11:00am 15.2 14.3 11.4 78 2.0 W 7 11 4 6 - - 0.0
22/10:30am 14.8 13.8 11.0 78 2.0 W 7 11 4 6 - - 0.0
22/10:00am 14.6 13.3 11.2 80 1.8 W 9 13 5 7 - - 0.0
22/09:30am 13.4 12.2 10.2 81 1.7 W 7 11 4 6 - - 0.0
22/09:00am 12.9 11.2 9.7 81 1.6 W 9 11 5 6 - - 0.0
22/08:30am 12.3 10.1 9.5 83 1.4 WNW 11 17 6 9 - - 0.0
22/08:00am 11.5 9.2 9.1 85 1.2 W 11 15 6 8 - - 0.0
22/07:30am 10.8 8.9 8.9 88 0.9 WNW 9 17 5 9 - - 0.0
22/07:00am 10.5 9.4 8.6 88 0.9 WNW 4 7 2 4 - - 0.0
22/06:30am 10.7 9.3 8.8 88 0.9 WNW 6 11 3 6 - - 0.0
22/06:00am 10.8 9.2 8.9 88 0.9 W 7 13 4 7 - - 0.0
22/05:30am 10.8 9.4 8.9 88 0.9 WNW 6 9 3 5 - - 0.0
22/05:00am 11.1 9.6 9.2 88 0.9 W 7 11 4 6 - - 0.0
22/04:30am 11.2 9.3 9.1 87 1.0 W 9 13 5 7 - - 0.0
22/04:00am 10.9 9.0 9.2 89 0.8 W 9 11 5 6 - - 0.0
22/03:30am 10.9 9.0 9.2 89 0.8 W 9 11 5 6 - - 0.0
22/03:00am 10.7 9.2 9.1 90 0.8 W 7 11 4 6 - - 0.0
22/02:30am 10.8 9.4 9.4 91 0.7 W 7 9 4 5 - - 0.0
22/02:00am 10.7 9.4 9.1 90 0.8 W 6 9 3 5 - - 0.0
22/01:30am 11.2 9.5 9.8 91 0.7 W 9 13 5 7 - - 0.0
22/01:00am 10.5 9.3 9.4 93 0.5 W 6 9 3 5 - - 0.0
22/12:30am 10.4 10.3 9.5 94 0.4 CALM 0 0 0 0 - - 0.0
22/12:00am 10.1 9.1 8.7 91 0.7 W 4 7 2 4 - - 0.0
 
Date/Time
EST
Temp
°C
App
Temp
°C
Dew
Point
°C
Rel
Hum
%
Delta-T
°C
Wind Press
QNH
hPa
Press
MSL
hPa
Rain since
9am
mm
Dir  Spd
km/h
Gust
km/h
Spd
kts
Gust
kts
21/11:30pm 10.0 9.1 9.2 95 0.4 W 4 6 2 3 - - 0.0
21/11:00pm 10.0 9.8 9.1 94 0.4 CALM 0 2 0 1 - - 0.0
21/10:30pm 10.4 10.3 9.3 93 0.5 CALM 0 0 0 0 - - 0.0
21/10:00pm 11.0 10.6 9.8 92 0.6 W 2 7 1 4 - - 0.0
21/09:30pm 11.9 12.1 10.5 91 0.7 CALM 0 0 0 0 - - 0.0
21/09:00pm 11.9 11.7 10.3 90 0.8 NW 2 6 1 3 - - 0.0
21/08:30pm 12.2 12.0 10.4 89 0.9 WNW 2 4 1 2 - - 0.0
21/08:00pm 13.2 13.0 10.4 83 1.5 SW 2 6 1 3 - - 0.0
21/07:30pm 15.1 14.6 10.7 75 2.3 SSW 4 7 2 4 - - 0.0
21/07:00pm 15.3 14.4 10.5 73 2.5 SW 6 9 3 5 - - 0.0
21/06:30pm 14.6 14.3 11.4 81 1.7 SW 4 7 2 4 - - 0.0
21/06:00pm 15.2 15.2 11.2 77 2.1 WSW 2 6 1 3 - - 0.0
21/05:30pm 16.7 15.7 10.3 66 3.4 S 6 13 3 7 - - 0.0
21/05:00pm 16.9 15.8 10.7 67 3.3 S 7 13 4 7 - - 0.0
21/04:30pm 16.8 15.9 11.3 70 3.0 S 7 13 4 7 - - 0.0
21/04:00pm 15.5 16.2 13.3 87 1.2 N 2 2 1 1 - - 0.0
21/03:30pm 16.2 16.8 13.1 82 1.7 WNW 2 4 1 2 - - 0.0
21/03:00pm 16.8 16.1 12.1 74 2.6 WSW 7 13 4 7 - - 0.0
21/02:30pm 17.6 16.2 12.1 70 3.0 W 11 15 6 8 - - 0.0
21/02:00pm 17.5 16.8 12.0 70 3.0 WSW 7 13 4 7 - - 0.0
21/01:30pm 17.6 17.0 12.3 71 2.9 WSW 7 11 4 6 - - 0.0
21/01:00pm 17.0 15.8 11.7 71 2.9 W 9 15 5 8 - - 0.0
21/12:30pm 16.7 15.4 11.4 71 2.9 WSW 9 15 5 8 - - 0.0
21/12:00pm 16.2 14.9 11.2 72 2.7 W 9 17 5 9 - - 0.0
21/11:30am 15.6 14.1 10.4 71 2.7 WSW 9 15 5 8 - - 0.0
21/11:00am 15.0 13.3 9.8 71 2.7 W 9 15 5 8 - - 0.0
21/10:30am 14.3 12.6 9.7 74 2.4 WNW 9 13 5 7 - - 0.0
21/10:00am 13.2 10.9 9.1 76 2.1 W 11 15 6 8 - - 0.0
21/09:30am 12.9 10.6 9.0 77 2.0 W 11 15 6 8 - - 0.0
21/09:00am 11.5 9.2 8.9 84 1.3 W 11 15 6 8 - - 0.4
21/08:30am 10.4 8.4 8.8 90 0.8 WNW 9 15 5 8 - - 0.4
21/08:00am 9.5 7.9 8.7 95 0.4 WNW 7 13 4 7 - - 0.2
21/07:30am 8.8 6.8 8.5 98 0.1 W 9 15 5 8 - - 0.2
21/07:00am 8.4 6.3 8.1 98 0.1 W 9 13 5 7 - - 0.2
21/06:30am 8.7 7.2 8.6 99 0.0 WNW 6 7 3 4 - - 0.2
21/06:00am 8.9 7.9 8.8 99 0.0 W 4 7 2 4 - - 0.2
21/05:30am 8.9 7.3 8.8 99 0.0 W 7 11 4 6 - - 0.2
21/05:00am 9.3 7.4 9.2 99 0.0 W 9 17 5 9 - - 0.2
21/04:30am 7.2 6.1 7.1 99 0.0 WNW 2 4 1 2 - - 0.2
21/04:00am 7.9 7.4 7.8 99 0.0 CALM 0 2 0 1 - - 0.2
21/03:30am 7.7 7.1 7.6 99 0.0 CALM 0 0 0 0 - - 0.2
21/03:00am 8.0 7.5 7.9 99 0.0 CALM 0 0 0 0 - - 0.2
21/02:30am 8.1 7.6 8.0 99 0.0 CALM 0 0 0 0 - - 0.0
21/02:00am 8.4 8.0 8.3 99 0.0 CALM 0 0 0 0 - - 0.0
21/01:30am 8.5 8.1 8.4 99 0.0 CALM 0 0 0 0 - - 0.0
21/01:00am 8.6 8.3 8.5 99 0.0 CALM 0 0 0 0 - - 0.0
21/12:30am 8.8 8.5 8.7 99 0.0 CALM 0 0 0 0 - - 0.0
21/12:00am 9.1 8.9 9.0 99 0.0 CALM 0 0 0 0 - - 0.0
 
Date/Time
EST
Temp
°C
App
Temp
°C
Dew
Point
°C
Rel
Hum
%
Delta-T
°C
Wind Press
QNH
hPa
Press
MSL
hPa
Rain since
9am
mm
Dir  Spd
km/h
Gust
km/h
Spd
kts
Gust
kts
20/11:30pm 9.5 9.4 9.4 99 0.0 CALM 0 0 0 0 - - 0.0
20/11:00pm 9.6 9.5 9.3 98 0.1 CALM 0 0 0 0 - - 0.0
20/10:30pm 9.9 9.8 9.6 98 0.1 CALM 0 0 0 0 - - 0.0
20/10:00pm 10.1 10.0 9.6 97 0.2 CALM 0 0 0 0 - - 0.0
20/09:30pm 10.4 10.5 10.1 98 0.2 CALM 0 0 0 0 - - 0.0
20/09:00pm 10.8 10.9 10.3 97 0.3 CALM 0 0 0 0 - - 0.0
20/08:30pm 11.1 11.3 10.6 97 0.3 CALM 0 0 0 0 - - 0.0
20/08:00pm 11.4 11.7 10.9 97 0.3 CALM 0 0 0 0 - - 0.0
20/07:30pm 11.6 11.9 11.0 96 0.3 CALM 0 0 0 0 - - 0.0
20/07:00pm 12.2 12.6 11.4 95 0.4 CALM 0 0 0 0 - - 0.0
20/06:30pm 12.8 13.4 11.9 94 0.5 CALM 0 0 0 0 - - 0.0
20/06:00pm 13.7 14.2 12.8 94 0.5 NE 2 4 1 2 - - 0.0
20/05:30pm 14.4 14.5 12.6 89 1.0 WNW 4 6 2 3 - - 0.0
20/05:00pm 14.9 15.6 13.3 90 0.9 WNW 2 6 1 3 - - 0.0
20/04:30pm 15.6 16.3 13.4 87 1.2 NW 2 4 1 2 - - 0.0
20/04:00pm 17.8 18.4 14.3 80 2.0 WNW 4 4 2 2 - - 0.0
20/03:30pm 17.9 18.5 14.2 79 2.1 W 4 6 2 3 - - 0.0
20/03:00pm 16.9 17.5 14.2 84 1.5 WNW 4 6 2 3 - - 0.0
20/02:30pm 16.8 17.1 13.5 81 1.9 WSW 4 9 2 5 - - 0.0
20/02:00pm 17.0 17.7 14.6 86 1.4 WSW 4 9 2 5 - - 0.0
20/01:30pm 15.9 15.3 13.6 86 1.3 WSW 9 13 5 7 - - 0.0
20/01:00pm 16.7 16.7 14.3 86 1.4 SW 7 13 4 7 - - 0.0
20/12:30pm 15.3 15.5 14.2 93 0.6 WSW 6 11 3 6 - - 0.0
20/12:00pm 15.5 15.1 14.0 91 0.8 SSW 9 15 5 8 - - 0.0
20/11:30am 16.7 16.7 14.2 85 1.4 WSW 7 11 4 6 - - 0.0
20/11:00am 15.7 15.4 13.4 86 1.3 WSW 7 13 4 7 - - 0.0
20/10:30am 15.7 15.1 13.4 86 1.3 SW 9 15 5 8 - - 0.0
20/10:00am 15.4 15.1 13.4 88 1.1 WSW 7 13 4 7 - - 0.0
20/09:30am 14.8 14.5 13.2 90 0.9 W 7 11 4 6 - - 0.0
20/09:00am 13.8 13.4 12.5 92 0.7 WNW 6 9 3 5 - - 8.2
20/08:30am 13.5 12.6 12.6 94 0.5 W 9 13 5 7 - - 8.2
20/08:00am 13.5 13.1 12.9 96 0.3 W 7 13 4 7 - - 8.2
20/07:30am 13.2 13.3 12.6 96 0.3 NW 4 6 2 3 - - 8.2
20/07:00am 13.2 12.7 12.6 96 0.3 WNW 7 11 4 6 - - 8.0
20/06:30am 13.1 12.2 12.6 97 0.3 WNW 9 15 5 8 - - 8.0
20/06:00am 13.1 13.9 12.6 97 0.3 CALM 0 2 0 1 - - 7.8
20/05:30am 13.4 13.2 13.1 98 0.2 W 6 7 3 4 - - 7.8
20/05:00am 13.5 13.7 13.2 98 0.2 WSW 4 6 2 3 - - 7.8
20/04:30am 13.5 14.1 13.0 97 0.3 NW 2 6 1 3 - - 7.8
20/04:00am 13.4 13.9 12.9 97 0.3 WNW 2 6 1 3 - - 7.4
20/03:30am 13.4 14.3 12.9 97 0.3 CALM 0 4 0 2 - - 7.4
20/03:00am 13.7 13.6 13.2 97 0.3 WSW 6 11 3 6 - - 7.2
20/02:30am 13.5 13.7 13.0 97 0.3 NW 4 9 2 5 - - 7.2
20/02:00am 13.8 14.8 13.3 97 0.3 CALM 0 2 0 1 - - 7.2
20/01:30am 14.0 13.8 13.5 97 0.3 WNW 7 11 4 6 - - 7.2
20/01:00am 14.4 15.7 14.1 98 0.2 CALM 0 0 0 0 - - 7.2
20/12:30am 14.5 14.7 14.2 98 0.2 WSW 6 11 3 6 - - 7.0
20/12:00am 14.4 14.6 14.1 98 0.2 WSW 6 9 3 5 - - 7.0
 
Date/Time
EST
Temp
°C
App
Temp
°C
Dew
Point
°C
Rel
Hum
%
Delta-T
°C
Wind Press
QNH
hPa
Press
MSL
hPa
Rain since
9am
mm
Dir  Spd
km/h
Gust
km/h
Spd
kts
Gust
kts
19/11:30pm 14.4 15.6 13.9 97 0.3 CALM 0 4 0 2 - - 6.4
19/11:00pm 14.5 14.7 14.2 98 0.2 WSW 6 9 3 5 - - 6.0
19/10:30pm 14.6 15.1 14.1 97 0.3 W 4 6 2 3 - - 5.4
19/10:00pm 14.6 15.1 14.0 96 0.3 W 4 6 2 3 - - 4.6

Other Formats:

Comma delimited format used in spreadsheet applications
http://www.bom.gov.au/fwo/IDN60801/IDN60801.94782.axf

JavaScript Object Notation format (JSON) in row-major order
http://www.bom.gov.au/fwo/IDN60801/IDN60801.94782.json